createdAt,value
2023-12-09T00:01:54.239Z,74.86
2023-12-09T00:04:26.847Z,74.95
2023-12-09T00:06:53.905Z,74.54
2023-12-09T00:09:21.201Z,74.64
2023-12-09T00:11:51.315Z,75.03
2023-12-09T00:14:21.567Z,74.77
2023-12-09T00:16:48.915Z,75.08
2023-12-09T00:19:18.544Z,75.39
2023-12-09T00:21:48.413Z,74.96
2023-12-09T00:24:17.318Z,75.32
2023-12-09T00:26:44.150Z,74.70
2023-12-09T00:29:11.981Z,75.03
2023-12-09T00:31:38.875Z,75.03
2023-12-09T00:34:08.297Z,74.41
2023-12-09T00:36:37.705Z,74.88
2023-12-09T00:39:08.855Z,74.53
2023-12-09T00:41:36.449Z,75.01
2023-12-09T00:44:03.397Z,75.33
2023-12-09T00:46:34.717Z,75.22
2023-12-09T00:49:01.839Z,75.26
2023-12-09T00:51:28.812Z,75.32
2023-12-09T00:53:55.821Z,75.39
2023-12-09T00:56:33.619Z,74.76
2023-12-09T00:59:02.329Z,75.73
2023-12-09T01:01:31.952Z,75.52
2023-12-09T01:04:05.313Z,75.47
2023-12-09T01:06:35.471Z,75.69
2023-12-09T01:09:02.417Z,75.73
2023-12-09T01:11:29.352Z,75.33
2023-12-09T01:13:56.306Z,76.37
2023-12-09T01:16:23.282Z,76.05
2023-12-09T01:18:50.136Z,76.10
2023-12-09T01:21:17.369Z,75.84
2023-12-09T01:23:44.209Z,76.35
2023-12-09T01:26:11.012Z,76.00
2023-12-09T01:28:38.438Z,76.17
2023-12-09T01:31:07.768Z,75.69
2023-12-09T01:33:39.505Z,76.14
2023-12-09T01:36:08.605Z,75.69
2023-12-09T01:38:36.432Z,76.44
2023-12-09T01:41:03.410Z,76.55
2023-12-09T01:43:30.644Z,76.46
2023-12-09T01:46:05.168Z,76.55
2023-12-09T01:48:33.305Z,76.91
2023-12-09T01:51:02.348Z,76.24
2023-12-09T01:53:31.924Z,77.03
2023-12-09T01:56:03.627Z,76.47
2023-12-09T01:58:31.501Z,75.76
2023-12-09T02:00:58.656Z,76.83
2023-12-09T02:03:25.791Z,76.50
2023-12-09T02:05:58.442Z,77.70
2023-12-09T02:08:25.362Z,77.59
2023-12-09T02:11:19.511Z,77.14
2023-12-09T02:13:58.825Z,76.94
2023-12-09T02:16:37.956Z,76.75
2023-12-09T02:19:13.550Z,76.75
2023-12-09T02:22:01.056Z,77.50
2023-12-09T02:24:29.122Z,76.84
2023-12-09T02:27:08.479Z,76.93
2023-12-09T02:29:53.752Z,76.67
2023-12-09T02:32:24.618Z,76.59
2023-12-09T02:34:54.570Z,77.35
2023-12-09T02:37:23.369Z,77.21
2023-12-09T02:39:53.336Z,76.75
2023-12-09T02:42:20.711Z,77.17
2023-12-09T02:44:52.151Z,77.20
2023-12-09T02:47:21.676Z,77.07
2023-12-09T02:49:48.780Z,77.00
2023-12-09T02:52:15.736Z,76.98
2023-12-09T02:54:42.538Z,78.00
2023-12-09T02:57:10.736Z,77.61
2023-12-09T02:59:40.959Z,77.25
2023-12-09T03:02:07.934Z,77.21
2023-12-09T03:04:34.833Z,76.71
2023-12-09T03:07:04.847Z,77.18
2023-12-09T03:09:31.846Z,77.71
2023-12-09T03:11:58.803Z,77.64
2023-12-09T03:14:25.634Z,78.01
2023-12-09T03:16:52.450Z,77.36
2023-12-09T03:19:22.558Z,78.04
2023-12-09T03:21:49.367Z,77.34
2023-12-09T03:24:16.388Z,77.42
2023-12-09T03:26:43.355Z,77.58
2023-12-09T03:29:10.248Z,77.44
2023-12-09T03:31:41.035Z,77.95
2023-12-09T03:34:09.376Z,78.67
2023-12-09T03:36:36.376Z,78.00
2023-12-09T03:39:03.689Z,78.15
2023-12-09T03:41:30.948Z,78.16
2023-12-09T03:44:00.826Z,77.83
2023-12-09T03:46:27.632Z,77.69
2023-12-09T03:48:54.577Z,76.97
2023-12-09T03:51:21.445Z,77.20
2023-12-09T03:53:48.516Z,78.28
2023-12-09T03:56:18.802Z,77.46
2023-12-09T03:58:48.031Z,78.53
2023-12-09T04:01:15.037Z,77.81
2023-12-09T04:03:41.974Z,77.92
2023-12-09T04:06:08.973Z,77.79
2023-12-09T04:08:35.975Z,77.79
2023-12-09T04:11:04.902Z,77.37
2023-12-09T04:13:32.105Z,77.61
2023-12-09T04:16:01.405Z,77.86
2023-12-09T04:18:31.491Z,78.56
2023-12-09T04:20:58.599Z,78.16
2023-12-09T04:23:28.145Z,78.12
2023-12-09T04:25:55.082Z,78.26
2023-12-09T04:28:24.678Z,78.94
2023-12-09T04:30:53.603Z,78.08
2023-12-09T04:33:20.842Z,78.38
2023-12-09T04:35:47.907Z,77.90
2023-12-09T04:38:15.010Z,77.59
2023-12-09T04:40:43.629Z,78.46
2023-12-09T04:43:10.525Z,78.21
2023-12-09T04:45:37.536Z,77.92
2023-12-09T04:48:07.352Z,78.70
2023-12-09T04:50:40.695Z,78.17
2023-12-09T04:53:10.888Z,78.46
2023-12-09T04:55:41.858Z,78.30
2023-12-09T04:58:08.662Z,78.48
2023-12-09T05:00:36.679Z,78.23
2023-12-09T05:03:03.823Z,78.28
2023-12-09T05:05:30.868Z,78.50
2023-12-09T05:08:05.175Z,77.77
2023-12-09T05:10:31.888Z,78.28
2023-12-09T05:13:00.618Z,77.91
2023-12-09T05:15:28.676Z,77.35
2023-12-09T05:18:00.985Z,77.83
2023-12-09T05:20:29.276Z,78.10
2023-12-09T05:22:59.005Z,77.55
2023-12-09T05:25:28.759Z,77.70
2023-12-09T05:27:56.428Z,77.11
2023-12-09T05:30:25.567Z,77.22
2023-12-09T05:32:52.797Z,77.70
2023-12-09T05:35:19.823Z,77.07
2023-12-09T05:37:48.948Z,77.47
2023-12-09T05:40:16.087Z,77.14
2023-12-09T05:42:43.111Z,77.61
2023-12-09T05:45:10.538Z,77.77
2023-12-09T05:47:37.443Z,78.11
2023-12-09T05:50:08.358Z,77.54
2023-12-09T05:52:38.319Z,78.01
2023-12-09T05:55:05.887Z,77.96
2023-12-09T05:57:33.054Z,78.91
2023-12-09T06:00:00.374Z,78.89
2023-12-09T06:02:27.556Z,78.71
2023-12-09T06:04:57.907Z,78.22
2023-12-09T06:07:25.603Z,77.47
2023-12-09T06:09:54.744Z,77.71
2023-12-09T06:12:24.794Z,78.71
2023-12-09T06:14:55.547Z,79.11
2023-12-09T06:17:22.439Z,79.27
2023-12-09T06:19:52.374Z,78.89
2023-12-09T06:22:22.032Z,78.30
2023-12-09T06:24:49.099Z,78.33
2023-12-09T06:27:19.581Z,78.95
2023-12-09T06:29:52.259Z,78.59
2023-12-09T06:32:21.743Z,78.62
2023-12-09T06:34:48.679Z,77.80
2023-12-09T06:37:18.091Z,77.66
2023-12-09T06:39:45.053Z,78.17
2023-12-09T06:42:11.991Z,78.77
2023-12-09T06:44:38.798Z,78.35
2023-12-09T06:47:13.383Z,78.55
2023-12-09T06:49:40.314Z,77.93
2023-12-09T06:52:09.430Z,78.81
2023-12-09T06:54:36.470Z,78.62
2023-12-09T06:57:03.605Z,78.28
2023-12-09T06:59:32.960Z,78.64
2023-12-09T07:02:02.367Z,78.03
2023-12-09T07:04:34.230Z,78.00
2023-12-09T07:07:02.226Z,78.59
2023-12-09T07:09:29.882Z,78.50
2023-12-09T07:12:01.970Z,78.17
2023-12-09T07:14:29.834Z,78.19
2023-12-09T07:16:56.823Z,78.03
2023-12-09T07:19:23.806Z,77.71
2023-12-09T07:21:52.239Z,77.94
2023-12-09T07:24:19.696Z,77.91
2023-12-09T07:26:46.711Z,77.41
2023-12-09T07:29:13.513Z,78.00
2023-12-09T07:31:41.914Z,77.28
2023-12-09T07:34:11.026Z,77.72
2023-12-09T07:36:40.880Z,77.29
2023-12-09T07:39:09.836Z,77.53
2023-12-09T07:41:38.942Z,77.36
2023-12-09T07:44:08.447Z,76.95
2023-12-09T07:46:38.060Z,77.14
2023-12-09T07:49:05.024Z,77.55
2023-12-09T07:51:32.186Z,77.50
2023-12-09T07:53:59.522Z,76.20
2023-12-09T07:56:26.405Z,76.59
2023-12-09T07:58:53.185Z,76.53
2023-12-09T08:01:22.442Z,76.49
2023-12-09T08:03:49.503Z,76.97
2023-12-09T08:06:17.365Z,77.30
2023-12-09T08:08:45.234Z,76.54
2023-12-09T08:11:17.899Z,76.28
2023-12-09T08:13:44.673Z,76.17
2023-12-09T08:16:11.643Z,76.27
2023-12-09T08:18:41.580Z,76.41
2023-12-09T08:21:08.450Z,76.90
2023-12-09T08:23:35.525Z,76.05
2023-12-09T08:26:05.628Z,75.61
2023-12-09T08:28:32.424Z,75.43
2023-12-09T08:30:59.381Z,76.25
2023-12-09T08:33:29.531Z,76.03
2023-12-09T08:35:56.374Z,76.09
2023-12-09T08:38:23.594Z,76.22
2023-12-09T08:40:50.387Z,76.06
2023-12-09T08:43:17.109Z,75.78
2023-12-09T08:45:51.598Z,75.91
2023-12-09T08:48:27.855Z,75.24
2023-12-09T08:50:56.440Z,74.65
2023-12-09T08:53:23.218Z,75.47
2023-12-09T08:55:50.316Z,75.54
2023-12-09T08:58:17.445Z,75.59
2023-12-09T09:00:44.415Z,75.89
2023-12-09T09:03:11.510Z,75.76
2023-12-09T09:05:38.519Z,75.65
2023-12-09T09:08:05.923Z,75.44
2023-12-09T09:10:32.962Z,74.93
2023-12-09T09:13:00.532Z,73.99
2023-12-09T09:15:28.482Z,74.64
2023-12-09T09:18:04.022Z,74.41
2023-12-09T09:20:30.929Z,75.60
2023-12-09T09:23:00.551Z,75.51
2023-12-09T09:25:27.670Z,75.09
2023-12-09T09:27:55.174Z,75.21
2023-12-09T09:30:25.292Z,75.46
2023-12-09T09:32:52.557Z,75.57
2023-12-09T09:35:19.513Z,76.15
2023-12-09T09:37:46.446Z,76.46
2023-12-09T09:40:15.445Z,75.08
2023-12-09T09:42:56.822Z,75.60
2023-12-09T09:45:29.872Z,75.42
2023-12-09T09:48:04.141Z,75.22
2023-12-09T09:50:39.146Z,75.19
2023-12-09T09:53:08.624Z,76.06
2023-12-09T09:55:41.496Z,76.14
2023-12-09T09:58:09.408Z,76.24
2023-12-09T10:00:36.465Z,76.10
2023-12-09T10:03:04.583Z,75.45
2023-12-09T10:05:31.902Z,76.15
2023-12-09T10:08:01.768Z,75.34
2023-12-09T10:10:34.818Z,75.92
2023-12-09T10:13:01.676Z,75.95
2023-12-09T10:15:31.402Z,75.55
2023-12-09T10:18:03.175Z,75.18
2023-12-09T10:20:31.229Z,75.60
2023-12-09T10:23:03.153Z,75.64
2023-12-09T10:25:30.381Z,75.28
2023-12-09T10:28:03.086Z,74.51
2023-12-09T10:30:32.534Z,73.88
2023-12-09T10:33:01.634Z,73.90
2023-12-09T10:35:29.568Z,74.71
2023-12-09T10:38:02.088Z,74.28
2023-12-09T10:40:31.737Z,74.90
2023-12-09T10:42:58.848Z,74.21
2023-12-09T10:45:29.464Z,74.24
2023-12-09T10:47:59.021Z,74.81
2023-12-09T10:50:26.356Z,75.52
2023-12-09T10:52:53.249Z,74.42
2023-12-09T10:55:20.771Z,74.93
2023-12-09T10:57:48.551Z,74.88
2023-12-09T11:00:16.080Z,75.53
2023-12-09T11:02:45.530Z,75.29
2023-12-09T11:05:14.181Z,75.53
2023-12-09T11:07:42.215Z,75.86
2023-12-09T11:10:12.780Z,75.24
2023-12-09T11:12:39.610Z,75.74
2023-12-09T11:15:17.652Z,75.05
2023-12-09T11:17:46.160Z,74.43
2023-12-09T11:20:16.180Z,75.21
2023-12-09T11:22:47.427Z,74.96
2023-12-09T11:25:26.624Z,74.59
2023-12-09T11:27:54.559Z,74.59
2023-12-09T11:30:34.617Z,75.29
2023-12-09T11:33:06.010Z,75.35
2023-12-09T11:35:34.674Z,75.09
2023-12-09T11:38:02.953Z,74.97
2023-12-09T11:40:34.164Z,73.19
2023-12-09T11:43:04.730Z,74.50
2023-12-09T11:45:31.786Z,74.14
2023-12-09T11:47:59.768Z,74.39
2023-12-09T11:50:29.341Z,75.05
2023-12-09T11:52:59.590Z,74.54
2023-12-09T11:55:26.548Z,74.31
2023-12-09T11:57:53.523Z,75.01
2023-12-09T12:00:20.752Z,74.22
2023-12-09T12:02:50.143Z,74.45
2023-12-09T12:05:17.365Z,75.38
2023-12-09T12:07:47.631Z,74.84
2023-12-09T12:10:16.078Z,74.93
2023-12-09T12:12:46.216Z,74.43
2023-12-09T12:15:21.257Z,75.39
2023-12-09T12:17:49.595Z,75.11
2023-12-09T12:20:16.822Z,74.94
2023-12-09T12:22:43.954Z,76.78
2023-12-09T12:25:11.322Z,76.37
2023-12-09T12:27:47.921Z,76.28
2023-12-09T12:30:17.640Z,76.04
2023-12-09T12:32:57.553Z,76.56
2023-12-09T12:35:25.515Z,76.11
2023-12-09T12:37:52.568Z,75.24
2023-12-09T12:40:22.525Z,75.49
2023-12-09T12:42:52.013Z,75.58
2023-12-09T12:45:27.789Z,75.80
2023-12-09T12:47:56.132Z,75.35
2023-12-09T12:50:23.226Z,76.05
2023-12-09T12:52:52.918Z,75.28
2023-12-09T12:55:28.465Z,75.38
2023-12-09T12:57:56.974Z,75.18
2023-12-09T13:00:24.130Z,75.33
2023-12-09T13:02:51.304Z,75.30
2023-12-09T13:05:18.115Z,75.77
2023-12-09T13:07:49.100Z,75.13
2023-12-09T13:10:16.066Z,75.91
2023-12-09T13:12:43.894Z,75.00
2023-12-09T13:15:11.461Z,74.49
2023-12-09T13:17:38.904Z,74.90
2023-12-09T13:20:06.684Z,74.89
2023-12-09T13:22:33.762Z,75.04
2023-12-09T13:25:01.637Z,75.86
2023-12-09T13:27:32.921Z,76.27
2023-12-09T13:30:01.357Z,76.10
2023-12-09T13:32:28.697Z,75.63
2023-12-09T13:34:55.793Z,76.21
2023-12-09T13:37:22.770Z,75.88
2023-12-09T13:39:49.924Z,76.59
2023-12-09T13:42:19.256Z,75.92
2023-12-09T13:44:49.484Z,76.21
2023-12-09T13:47:17.879Z,76.31
2023-12-09T13:49:45.927Z,76.32
2023-12-09T13:52:15.334Z,75.87
2023-12-09T13:54:44.876Z,76.53
2023-12-09T13:57:12.087Z,76.61
2023-12-09T13:59:42.065Z,76.54
2023-12-09T14:02:09.063Z,75.88
2023-12-09T14:04:38.216Z,76.03
2023-12-09T14:07:06.040Z,75.88
2023-12-09T14:09:32.997Z,76.01
2023-12-09T14:12:00.233Z,76.28
2023-12-09T14:14:27.169Z,76.71
2023-12-09T14:16:54.442Z,75.97
2023-12-09T14:19:21.456Z,76.24
2023-12-09T14:21:48.484Z,76.59
2023-12-09T14:24:17.277Z,76.12
2023-12-09T14:26:47.558Z,77.25
2023-12-09T14:29:16.839Z,76.73
2023-12-09T14:31:44.157Z,76.72
2023-12-09T14:34:11.622Z,76.83
2023-12-09T14:36:39.647Z,76.68
2023-12-09T14:39:08.675Z,77.30
2023-12-09T14:41:35.601Z,77.97
2023-12-09T14:44:08.280Z,76.98
2023-12-09T14:46:36.204Z,77.25
2023-12-09T14:49:05.934Z,77.22
2023-12-09T14:51:40.827Z,77.33
2023-12-09T14:54:14.767Z,76.83
2023-12-09T14:56:43.344Z,77.03
2023-12-09T14:59:10.990Z,77.14
2023-12-09T15:01:38.081Z,77.28
2023-12-09T15:04:09.864Z,77.46
2023-12-09T15:06:37.013Z,77.41
2023-12-09T15:09:04.377Z,77.14
2023-12-09T15:11:34.122Z,77.27
2023-12-09T15:14:00.988Z,77.42
2023-12-09T15:16:29.884Z,77.32
2023-12-09T15:18:57.047Z,76.70
2023-12-09T15:21:24.251Z,77.70
2023-12-09T15:23:51.258Z,77.67
2023-12-09T15:26:18.272Z,77.44
2023-12-09T15:28:47.855Z,77.15
2023-12-09T15:31:22.905Z,77.08
2023-12-09T15:33:52.491Z,77.32
2023-12-09T15:36:19.610Z,77.63
2023-12-09T15:38:49.267Z,76.78
2023-12-09T15:41:16.204Z,76.64
2023-12-09T15:43:43.166Z,76.96
2023-12-09T15:46:10.034Z,76.85
2023-12-09T15:48:37.278Z,77.65
2023-12-09T15:51:10.482Z,78.01
2023-12-09T15:53:40.375Z,77.55
2023-12-09T15:56:09.862Z,76.94
2023-12-09T15:58:37.150Z,77.88
2023-12-09T16:01:04.448Z,77.51
2023-12-09T16:03:33.915Z,77.99
2023-12-09T16:06:02.413Z,77.67
2023-12-09T16:08:29.432Z,77.44
2023-12-09T16:10:56.352Z,76.98
2023-12-09T16:13:24.912Z,77.43
2023-12-09T16:15:52.679Z,78.06
2023-12-09T16:18:19.921Z,77.96
2023-12-09T16:20:47.377Z,77.50
2023-12-09T16:23:14.304Z,77.64
2023-12-09T16:25:45.656Z,77.69
2023-12-09T16:28:12.622Z,78.36
2023-12-09T16:30:39.803Z,78.09
2023-12-09T16:33:06.848Z,78.58
2023-12-09T16:35:33.908Z,78.18
2023-12-09T16:38:01.018Z,78.45
2023-12-09T16:40:28.348Z,78.51
2023-12-09T16:42:55.439Z,78.33
2023-12-09T16:45:22.433Z,78.46
2023-12-09T16:47:49.625Z,78.07
2023-12-09T16:50:18.050Z,78.19
2023-12-09T16:52:48.837Z,78.17
2023-12-09T16:55:17.648Z,78.89
2023-12-09T16:57:48.547Z,78.36
2023-12-09T17:00:16.161Z,78.60
2023-12-09T17:02:43.281Z,78.79
2023-12-09T17:05:12.727Z,78.94
2023-12-09T17:07:39.821Z,79.13
2023-12-09T17:10:16.909Z,79.88
2023-12-09T17:12:43.940Z,79.16
2023-12-09T17:15:11.325Z,78.26
2023-12-09T17:17:38.294Z,78.96
2023-12-09T17:20:05.966Z,79.41
2023-12-09T17:22:34.002Z,78.56
2023-12-09T17:25:01.442Z,79.31
2023-12-09T17:27:30.776Z,79.13
2023-12-09T17:30:00.540Z,79.48
2023-12-09T17:32:28.346Z,79.52
2023-12-09T17:34:55.525Z,79.35
2023-12-09T17:37:23.371Z,79.48
2023-12-09T17:39:50.317Z,79.54
2023-12-09T17:42:17.237Z,79.93
2023-12-09T17:44:44.365Z,80.95
2023-12-09T17:47:11.411Z,79.81
2023-12-09T17:49:41.594Z,80.80
2023-12-09T17:52:08.740Z,80.73
2023-12-09T17:54:36.827Z,79.94
2023-12-09T17:57:05.060Z,80.50
2023-12-09T17:59:32.032Z,80.51
2023-12-09T18:02:00.247Z,80.45
2023-12-09T18:04:29.744Z,80.47
2023-12-09T18:06:56.969Z,79.74
2023-12-09T18:09:26.905Z,80.37
2023-12-09T18:11:55.527Z,79.66
2023-12-09T18:14:22.548Z,79.39
2023-12-09T18:16:49.809Z,79.13
2023-12-09T18:19:17.437Z,80.30
2023-12-09T18:21:44.673Z,80.23
2023-12-09T18:24:12.044Z,79.26
2023-12-09T18:26:41.950Z,79.80
2023-12-09T18:29:09.149Z,79.12
2023-12-09T18:31:36.380Z,79.10
2023-12-09T18:34:03.370Z,79.56
2023-12-09T18:36:30.500Z,79.05
2023-12-09T18:38:57.624Z,78.68
2023-12-09T18:41:24.644Z,79.04
2023-12-09T18:43:54.697Z,79.48
2023-12-09T18:46:25.484Z,79.02
2023-12-09T18:48:52.553Z,78.64
2023-12-09T18:51:19.500Z,79.55
2023-12-09T18:53:46.412Z,79.34
2023-12-09T18:56:13.858Z,78.68
2023-12-09T18:58:40.796Z,78.46
2023-12-09T19:01:11.878Z,79.15
2023-12-09T19:03:41.539Z,78.94
2023-12-09T19:06:10.337Z,79.39
2023-12-09T19:08:38.781Z,79.49
2023-12-09T19:11:10.545Z,79.38
2023-12-09T19:13:37.410Z,79.82
2023-12-09T19:16:07.447Z,79.75
2023-12-09T19:18:34.778Z,79.37
2023-12-09T19:21:05.506Z,79.23
2023-12-09T19:23:32.440Z,79.01
2023-12-09T19:25:59.577Z,79.53
2023-12-09T19:28:27.016Z,79.46
2023-12-09T19:30:56.484Z,80.30
2023-12-09T19:33:23.622Z,79.78
2023-12-09T19:35:50.753Z,79.42
2023-12-09T19:38:19.837Z,80.14
2023-12-09T19:40:46.790Z,79.61
2023-12-09T19:43:13.795Z,79.52
2023-12-09T19:45:40.963Z,80.09
2023-12-09T19:48:08.151Z,80.23
2023-12-09T19:50:35.150Z,80.19
2023-12-09T19:53:05.081Z,79.91
2023-12-09T19:55:32.101Z,79.73
2023-12-09T19:58:03.818Z,79.67
2023-12-09T20:00:40.361Z,80.30
2023-12-09T20:03:07.985Z,80.27
2023-12-09T20:05:38.145Z,79.99
2023-12-09T20:08:05.202Z,80.14
2023-12-09T20:10:41.459Z,80.38
2023-12-09T20:13:08.533Z,80.61
2023-12-09T20:15:35.866Z,80.47
2023-12-09T20:18:03.028Z,79.83
2023-12-09T20:20:31.535Z,80.36
2023-12-09T20:23:00.987Z,80.16
2023-12-09T20:25:28.041Z,80.64
2023-12-09T20:27:56.443Z,81.14
2023-12-09T20:30:23.722Z,81.35
2023-12-09T20:32:52.206Z,81.65
2023-12-09T20:35:19.110Z,82.55
2023-12-09T20:37:46.133Z,81.50
2023-12-09T20:40:13.756Z,81.86
2023-12-09T20:42:41.193Z,81.56
2023-12-09T20:45:08.425Z,81.43
2023-12-09T20:47:36.160Z,80.85
2023-12-09T20:50:04.972Z,81.76
2023-12-09T20:52:32.028Z,81.26
2023-12-09T20:54:59.035Z,81.76
2023-12-09T20:57:26.160Z,82.17
2023-12-09T20:59:55.342Z,81.16
2023-12-09T21:02:23.471Z,81.68
2023-12-09T21:04:50.860Z,81.67
2023-12-09T21:07:17.790Z,81.66
2023-12-09T21:09:44.851Z,82.14
2023-12-09T21:12:13.384Z,81.54
2023-12-09T21:14:40.374Z,81.00
2023-12-09T21:17:10.432Z,81.71
2023-12-09T21:19:37.537Z,81.56
2023-12-09T21:22:04.998Z,81.78
2023-12-09T21:24:32.673Z,81.28
2023-12-09T21:26:59.584Z,81.17
2023-12-09T21:29:27.388Z,81.32
2023-12-09T21:31:56.356Z,81.71
2023-12-09T21:34:23.475Z,82.18
2023-12-09T21:36:50.447Z,81.67
2023-12-09T21:39:17.600Z,81.29
2023-12-09T21:41:47.621Z,80.77
2023-12-09T21:44:14.982Z,81.76
2023-12-09T21:46:42.757Z,81.80
2023-12-09T21:49:09.725Z,81.18
2023-12-09T21:51:41.136Z,81.21
2023-12-09T21:54:08.532Z,81.63
2023-12-09T21:56:35.724Z,82.18
2023-12-09T21:59:02.569Z,81.57
2023-12-09T22:01:29.513Z,82.24
2023-12-09T22:03:56.523Z,81.89
2023-12-09T22:06:23.534Z,81.87
2023-12-09T22:08:50.536Z,82.29
2023-12-09T22:11:21.296Z,81.88
2023-12-09T22:13:48.260Z,82.54
2023-12-09T22:16:20.363Z,82.12
2023-12-09T22:18:48.641Z,82.35
2023-12-09T22:21:19.170Z,82.30
2023-12-09T22:23:48.350Z,82.05
2023-12-09T22:26:15.655Z,82.68
2023-12-09T22:28:42.839Z,83.06
2023-12-09T22:31:12.951Z,83.29
2023-12-09T22:33:44.041Z,82.42
2023-12-09T22:36:12.097Z,82.86
2023-12-09T22:38:39.094Z,83.09
2023-12-09T22:41:06.226Z,82.95
2023-12-09T22:43:38.730Z,83.03
2023-12-09T22:46:05.987Z,82.60
2023-12-09T22:48:33.009Z,83.01
2023-12-09T22:51:00.186Z,82.75
2023-12-09T22:53:27.138Z,82.11
2023-12-09T22:56:11.842Z,82.72
2023-12-09T22:58:43.309Z,82.69
2023-12-09T23:01:11.340Z,83.23
2023-12-09T23:03:38.380Z,83.78
2023-12-09T23:06:05.600Z,82.22
2023-12-09T23:08:32.541Z,82.54
2023-12-09T23:10:59.755Z,82.76
2023-12-09T23:13:26.833Z,81.87
2023-12-09T23:15:54.081Z,82.05
2023-12-09T23:18:21.085Z,82.52
2023-12-09T23:20:48.081Z,82.17
2023-12-09T23:23:14.946Z,82.26
2023-12-09T23:25:41.777Z,83.04
2023-12-09T23:28:09.640Z,82.96
2023-12-09T23:30:36.854Z,83.07
2023-12-09T23:33:10.765Z,83.43
2023-12-09T23:35:37.919Z,83.22
2023-12-09T23:38:04.804Z,83.33
2023-12-09T23:40:31.675Z,83.75
2023-12-09T23:42:58.643Z,83.34
2023-12-09T23:45:26.014Z,83.49
2023-12-09T23:47:55.225Z,83.41
2023-12-09T23:50:24.292Z,83.57
2023-12-09T23:52:51.321Z,83.12
2023-12-09T23:55:18.380Z,83.35
2023-12-09T23:57:48.095Z,83.24
